KMDQ

Huntsville Executive Tom Sharp Jr Field Airport

Huntsville, Alabama, USA
METAR KMDQ 161035Z AUTO 00000KT 7SM CLR M05/M05 A3024 RMK AO2
Observed Flight Rules
Dec-16 @ 10:35 UTC (19 minutes ago) Visual Flight Rules
Wind Visibility Clouds
Calm 7 miles
  • Clear skies
Temperatures Readings
Current -5°C / 23°F
Dewpoint -5°C / 23°F
Humidity 100%
Altimeter 30.24" Hg
Pressure 1024 hPa
Elevation 230
METAR KMDQ 161035Z AUTO 00000KT 7SM CLR M05/M05 A3024 RMK AO2
Observed Flight Rules
Dec-16 @ 10:35 UTC
(19 minutes ago)
VFR
Wind Visibility
Calm 7 miles
Clouds
  • Clear skies
Temperature Dewpoint
-5°C / 23°F -5°C / 23°F
Humidity Altimeter Pressure
100% 30.24" Hg 1024 hPa